Time;durP1;ratioP1;P1;durP2;ratioP2;P2;SDS_P1;SDS_P2;PMS_P1;PMS_P2;Temp;Humidity;BMP_temperature;BMP_pressure;BME280_temperature;BME280_humidity;BME280_pressure;Samples;Min_cycle;Max_cycle;Signal;HPM_P1;HPM_P2
2021/09/06 00:00:42;;;;;;;6.70;6.10;;;22.20;59.00;;;;;;5091161;28;20170;-61
2021/09/06 00:03:07;;;;;;;6.78;6.18;;;22.10;59.00;;;;;;5091956;28;20177;-61
2021/09/06 00:05:33;;;;;;;6.85;6.15;;;22.20;59.10;;;;;;5091624;28;20256;-61
2021/09/06 00:07:59;;;;;;;6.53;5.93;;;22.10;59.10;;;;;;5091349;28;20217;-60
2021/09/06 00:10:33;;;;;;;6.63;6.00;;;22.10;59.00;;;;;;5091930;28;20166;-60
2021/09/06 00:13:02;;;;;;;6.07;5.55;;;22.10;59.00;;;;;;5091591;28;20211;-60
2021/09/06 00:15:28;;;;;;;6.88;6.28;;;22.10;59.10;;;;;;5091781;28;20264;-60
2021/09/06 00:17:53;;;;;;;6.82;6.22;;;22.10;59.10;;;;;;5091910;28;20206;-60
2021/09/06 00:20:20;;;;;;;6.47;5.88;;;22.10;59.10;;;;;;5095317;28;20216;-61
2021/09/06 00:22:45;;;;;;;7.05;6.35;;;22.10;59.10;;;;;;5096194;28;20178;-60
2021/09/06 00:25:11;;;;;;;6.55;5.95;;;22.10;59.10;;;;;;5095928;28;20173;-61
2021/09/06 00:27:36;;;;;;;6.10;5.47;;;22.10;59.20;;;;;;5094806;28;20535;-60
2021/09/06 00:30:02;;;;;;;6.30;5.70;;;22.10;59.10;;;;;;5095885;28;20165;-60
2021/09/06 00:32:28;;;;;;;6.75;6.15;;;22.10;59.10;;;;;;5095409;28;20199;-61
2021/09/06 00:34:56;;;;;;;6.30;5.70;;;22.10;59.20;;;;;;5095035;28;20177;-61
2021/09/06 00:37:22;;;;;;;7.18;6.47;;;22.10;59.20;;;;;;5095442;28;20537;-61
2021/09/06 00:39:47;;;;;;;6.22;5.63;;;22.10;59.10;;;;;;5095692;28;20166;-61
2021/09/06 00:42:14;;;;;;;6.80;6.15;;;22.00;59.10;;;;;;5094989;28;20178;-61
2021/09/06 00:44:39;;;;;;;6.60;6.00;;;22.10;59.20;;;;;;5095381;28;20182;-61
2021/09/06 00:47:05;;;;;;;7.65;6.53;;;22.00;59.20;;;;;;5095533;28;20177;-62
2021/09/06 00:49:31;;;;;;;6.57;5.97;;;22.00;59.20;;;;;;5094559;28;20216;-61
2021/09/06 00:51:56;;;;;;;6.60;6.00;;;22.10;59.20;;;;;;5095461;28;20256;-61
2021/09/06 00:54:21;;;;;;;6.75;6.15;;;22.00;59.30;;;;;;5111054;28;20198;-60
2021/09/06 00:56:47;;;;;;;6.43;5.82;;;22.00;59.20;;;;;;5094693;28;20209;-60
2021/09/06 00:59:12;;;;;;;6.53;5.93;;;22.00;59.30;;;;;;5111172;28;20283;-61
2021/09/06 01:01:38;;;;;;;6.70;6.05;;;22.00;59.30;;;;;;5094868;28;20166;-61
2021/09/06 01:04:04;;;;;;;6.57;5.97;;;22.00;59.30;;;;;;5110567;28;20181;-61
2021/09/06 01:06:29;;;;;;;6.50;5.90;;;22.00;59.30;;;;;;5095132;28;20169;-61
2021/09/06 01:08:54;;;;;;;5.85;5.35;;;22.00;59.30;;;;;;5095083;28;20221;-61
2021/09/06 01:11:20;;;;;;;6.30;5.80;;;22.00;59.30;;;;;;5094056;28;20562;-60
2021/09/06 01:13:45;;;;;;;6.78;6.05;;;22.00;59.30;;;;;;5095062;28;20279;-60
2021/09/06 01:16:11;;;;;;;6.22;5.70;;;22.00;59.30;;;;;;5094950;28;20261;-60
2021/09/06 01:18:36;;;;;;;7.28;6.53;;;22.00;59.30;;;;;;5094032;28;20176;-60
2021/09/06 01:21:02;;;;;;;5.80;5.30;;;22.00;59.30;;;;;;5094845;28;20533;-61
2021/09/06 01:23:27;;;;;;;6.47;5.97;;;22.00;59.30;;;;;;5094020;28;20170;-60
2021/09/06 01:25:53;;;;;;;7.07;6.38;;;21.90;59.40;;;;;;5094825;28;20219;-60
2021/09/06 01:28:19;;;;;;;6.85;6.22;;;22.00;59.40;;;;;;5094628;28;20201;-61
2021/09/06 01:30:44;;;;;;;6.53;5.93;;;21.90;59.40;;;;;;5092429;28;20538;-60
2021/09/06 01:33:10;;;;;;;6.65;6.05;;;21.90;59.40;;;;;;5094903;28;20623;-61
2021/09/06 01:35:35;;;;;;;6.38;5.85;;;21.90;59.30;;;;;;5094195;28;20180;-61
2021/09/06 01:38:01;;;;;;;6.70;6.00;;;21.90;59.40;;;;;;5093916;28;20178;-61
2021/09/06 01:40:26;;;;;;;6.05;5.55;;;21.90;59.40;;;;;;5094060;28;20180;-61
2021/09/06 01:42:52;;;;;;;6.53;5.82;;;21.90;59.40;;;;;;5094494;28;20189;-60
2021/09/06 01:45:18;;;;;;;7.15;6.35;;;21.90;59.40;;;;;;5093582;28;20174;-61
2021/09/06 01:47:43;;;;;;;6.45;5.88;;;21.90;59.40;;;;;;5093844;28;20636;-61
2021/09/06 01:50:09;;;;;;;6.88;6.25;;;21.90;59.50;;;;;;5094419;28;20201;-61
2021/09/06 01:52:35;;;;;;;6.15;5.65;;;21.90;59.50;;;;;;5093306;28;20620;-61
2021/09/06 01:55:00;;;;;;;6.60;6.00;;;21.90;59.50;;;;;;5094259;28;20189;-61
2021/09/06 01:57:26;;;;;;;7.30;6.60;;;21.90;59.50;;;;;;5094036;28;20169;-61
2021/09/06 01:59:51;;;;;;;7.25;6.53;;;21.90;59.50;;;;;;5093177;28;20545;-61
2021/09/06 02:02:17;;;;;;;7.15;6.45;;;21.90;59.50;;;;;;5094263;28;20235;-62
2021/09/06 02:04:42;;;;;;;7.15;6.43;;;21.90;59.60;;;;;;5094013;28;20188;-61
2021/09/06 02:07:08;;;;;;;6.97;6.30;;;21.90;59.50;;;;;;5093216;28;20170;-61
2021/09/06 02:09:33;;;;;;;6.57;6.00;;;21.90;59.60;;;;;;5093691;28;20213;-60
2021/09/06 02:11:59;;;;;;;6.32;5.72;;;21.80;59.50;;;;;;5093982;28;20511;-60
2021/09/06 02:14:25;;;;;;;7.18;6.57;;;21.80;59.50;;;;;;5092725;28;20177;-60
2021/09/06 02:16:50;;;;;;;6.47;5.88;;;21.90;60.30;;;;;;5093874;28;20252;-61
2021/09/06 02:19:16;;;;;;;6.20;5.70;;;21.80;59.60;;;;;;5093805;28;20231;-60
2021/09/06 02:21:41;;;;;;;6.82;6.22;;;21.80;59.60;;;;;;5092626;28;20622;-61
2021/09/06 02:24:07;;;;;;;6.35;5.85;;;21.80;59.60;;;;;;5093725;28;20612;-60
2021/09/06 02:26:33;;;;;;;6.65;6.00;;;21.80;59.60;;;;;;5093173;28;20180;-60
2021/09/06 02:28:59;;;;;;;6.70;6.00;;;21.80;59.60;;;;;;5093005;28;20237;-60
2021/09/06 02:31:24;;;;;;;6.45;5.82;;;21.80;59.60;;;;;;5093456;28;20168;-60
2021/09/06 02:33:50;;;;;;;6.28;5.70;;;21.80;59.60;;;;;;5092794;28;20651;-61
2021/09/06 02:36:19;;;;;;;7.22;5.97;;;21.80;59.60;;;;;;5093351;28;20202;-61
2021/09/06 02:38:45;;;;;;;6.03;5.53;;;21.80;59.60;;;;;;5093414;28;20178;-62
2021/09/06 02:41:10;;;;;;;6.93;6.32;;;21.80;59.60;;;;;;5092378;28;20632;-61
2021/09/06 02:43:36;;;;;;;6.80;6.10;;;21.80;59.70;;;;;;5093068;28;20173;-60
2021/09/06 02:46:01;;;;;;;6.80;6.20;;;21.80;59.70;;;;;;5093249;28;20165;-61
2021/09/06 02:48:30;;;;;;;7.10;6.40;;;21.80;59.70;;;;;;5092356;28;20201;-61
2021/09/06 02:50:55;;;;;;;6.22;5.72;;;21.80;59.70;;;;;;5093226;28;20536;-61
2021/09/06 02:53:21;;;;;;;7.28;6.60;;;21.80;59.70;;;;;;5092821;28;20174;-61
2021/09/06 02:55:46;;;;;;;6.88;6.28;;;21.80;59.70;;;;;;5092484;28;20161;-61
2021/09/06 02:58:12;;;;;;;6.75;6.15;;;21.80;59.70;;;;;;5093147;28;20172;-61
2021/09/06 03:00:37;;;;;;;6.28;5.78;;;21.70;59.60;;;;;;5092564;28;20523;-61
2021/09/06 03:03:03;;;;;;;6.68;6.07;;;21.80;59.70;;;;;;5092456;28;20249;-62
2021/09/06 03:05:28;;;;;;;7.05;6.43;;;21.70;59.70;;;;;;5092655;28;20166;-61
2021/09/06 03:07:54;;;;;;;6.45;5.93;;;21.80;59.80;;;;;;5092968;28;20652;-61
2021/09/06 03:10:19;;;;;;;6.55;6.00;;;21.70;59.70;;;;;;5092057;28;20200;-61
2021/09/06 03:12:45;;;;;;;6.43;5.82;;;21.70;59.70;;;;;;5092747;28;20166;-61
2021/09/06 03:15:11;;;;;;;6.90;6.22;;;21.70;59.70;;;;;;5092883;28;20182;-61
2021/09/06 03:17:36;;;;;;;6.55;5.93;;;21.70;59.80;;;;;;5091740;28;20185;-61
2021/09/06 03:20:02;;;;;;;6.80;6.20;;;21.70;59.80;;;;;;5092445;28;20169;-61
2021/09/06 03:22:27;;;;;;;6.82;6.22;;;21.70;59.80;;;;;;5092552;28;20170;-60
2021/09/06 03:24:53;;;;;;;6.90;6.22;;;21.70;59.80;;;;;;5092003;28;20708;-61
2021/09/06 03:27:18;;;;;;;6.70;6.03;;;21.70;59.80;;;;;;5092773;28;20182;-61
2021/09/06 03:29:44;;;;;;;6.68;6.18;;;21.70;59.80;;;;;;5092253;28;20212;-60
2021/09/06 03:32:11;;;;;;;8.48;6.70;;;21.70;59.80;;;;;;5091998;28;20173;-61
2021/09/06 03:34:37;;;;;;;6.45;5.93;;;21.70;59.80;;;;;;5092381;28;20259;-60
2021/09/06 03:37:02;;;;;;;5.85;5.35;;;21.70;59.80;;;;;;5092171;28;20315;-61
2021/09/06 03:39:30;;;;;;;6.80;6.10;;;21.70;59.80;;;;;;5092241;28;20261;-62
2021/09/06 03:41:56;;;;;;;6.20;5.70;;;21.70;59.80;;;;;;5092498;28;20170;-61
2021/09/06 03:44:24;;;;;;;6.70;6.10;;;21.70;59.80;;;;;;5091425;28;20655;-61
2021/09/06 03:46:50;;;;;;;7.10;6.40;;;21.60;59.80;;;;;;5092617;28;20173;-61
2021/09/06 03:49:15;;;;;;;6.85;6.15;;;21.70;59.80;;;;;;5092448;28;20570;-61
2021/09/06 03:51:41;;;;;;;7.00;6.35;;;21.70;59.80;;;;;;5091393;28;20208;-61
2021/09/06 03:54:09;;;;;;;7.22;6.57;;;21.60;59.80;;;;;;5091563;28;20178;-60
2021/09/06 03:56:34;;;;;;;6.65;6.05;;;21.60;59.80;;;;;;5091968;28;20165;-60
2021/09/06 03:59:00;;;;;;;6.60;6.00;;;21.60;59.80;;;;;;5091735;28;20239;-61
2021/09/06 04:01:25;;;;;;;6.63;6.03;;;21.60;59.80;;;;;;5091896;28;20189;-61
2021/09/06 04:03:51;;;;;;;6.28;5.72;;;21.60;59.80;;;;;;5092257;28;20624;-61
2021/09/06 04:06:16;;;;;;;6.60;5.97;;;21.60;59.80;;;;;;5091408;28;20178;-61
2021/09/06 04:08:42;;;;;;;6.60;6.00;;;21.60;59.80;;;;;;5091683;28;20205;-61
2021/09/06 04:11:08;;;;;;;6.85;6.25;;;21.60;59.80;;;;;;5092016;28;20180;-61
2021/09/06 04:13:33;;;;;;;6.68;6.07;;;21.50;59.70;;;;;;5091306;28;20181;-60
2021/09/06 04:15:59;;;;;;;7.53;6.63;;;21.60;59.80;;;;;;5092329;28;20636;-61
2021/09/06 04:18:26;;;;;;;6.45;5.88;;;21.60;59.80;;;;;;5091906;28;20169;-60
2021/09/06 04:20:52;;;;;;;6.50;5.90;;;21.60;59.80;;;;;;5091315;28;20233;-61
2021/09/06 04:23:17;;;;;;;6.88;6.28;;;21.60;59.80;;;;;;5092248;28;20174;-61
2021/09/06 04:25:43;;;;;;;6.97;6.28;;;21.60;59.90;;;;;;5091849;28;20184;-60
2021/09/06 04:28:08;;;;;;;6.75;5.78;;;21.60;59.90;;;;;;5091638;28;20209;-60
2021/09/06 04:30:34;;;;;;;6.43;5.82;;;21.60;59.90;;;;;;5091849;28;20177;-60
2021/09/06 04:32:59;;;;;;;6.70;6.10;;;21.60;59.90;;;;;;5092236;28;20644;-61
2021/09/06 04:35:25;;;;;;;6.95;6.25;;;21.60;59.90;;;;;;5091234;28;20677;-61
2021/09/06 04:37:51;;;;;;;6.80;6.20;;;21.50;59.90;;;;;;5091999;28;20264;-61
2021/09/06 04:40:16;;;;;;;6.30;5.80;;;21.50;59.90;;;;;;5091262;28;20534;-62
2021/09/06 04:42:42;;;;;;;6.65;6.05;;;21.50;59.90;;;;;;5091839;28;20178;-60
2021/09/06 04:45:09;;;;;;;7.00;6.35;;;21.50;59.90;;;;;;5091977;28;20166;-61
2021/09/06 04:47:34;;;;;;;7.20;6.60;;;21.50;59.90;;;;;;5091080;28;20178;-61
2021/09/06 04:50:00;;;;;;;6.60;6.00;;;21.50;59.90;;;;;;5092103;28;20319;-61
2021/09/06 04:52:25;;;;;;;7.28;6.57;;;21.50;59.90;;;;;;5091371;28;20181;-61
2021/09/06 04:54:51;;;;;;;6.57;5.97;;;21.50;59.90;;;;;;5091109;28;20185;-60
2021/09/06 04:57:16;;;;;;;6.55;5.95;;;21.50;59.90;;;;;;5091929;28;20265;-61
2021/09/06 04:59:42;;;;;;;7.55;6.85;;;21.50;59.90;;;;;;5091341;28;20307;-62
2021/09/06 05:02:07;;;;;;;7.07;6.38;;;21.50;59.90;;;;;;5091356;28;20172;-61
2021/09/06 05:04:33;;;;;;;7.05;6.40;;;21.50;59.90;;;;;;5092425;28;20182;-61
2021/09/06 05:06:58;;;;;;;6.78;6.15;;;21.50;59.90;;;;;;5095241;28;20170;-61
2021/09/06 05:09:24;;;;;;;7.15;6.32;;;21.50;59.90;;;;;;5094097;28;20722;-61
2021/09/06 05:11:49;;;;;;;6.60;6.00;;;21.50;59.90;;;;;;5095190;28;20209;-61
2021/09/06 05:14:15;;;;;;;6.90;6.30;;;21.50;59.90;;;;;;5095291;28;20169;-61
2021/09/06 05:16:40;;;;;;;6.97;6.35;;;21.50;59.90;;;;;;5094121;28;20538;-61
2021/09/06 05:19:06;;;;;;;7.35;6.65;;;21.50;59.90;;;;;;5095019;28;20206;-61
2021/09/06 05:21:31;;;;;;;6.68;6.07;;;21.50;59.90;;;;;;5094486;28;20221;-61
2021/09/06 05:23:58;;;;;;;6.82;6.22;;;21.50;59.90;;;;;;5094295;28;20281;-62
2021/09/06 05:26:24;;;;;;;6.70;6.10;;;21.50;59.90;;;;;;5094393;28;20192;-60
2021/09/06 05:28:50;;;;;;;7.40;6.72;;;21.50;59.90;;;;;;5095007;28;20223;-61
2021/09/06 05:31:15;;;;;;;6.57;5.97;;;21.50;59.90;;;;;;5094184;28;20177;-61
2021/09/06 05:33:41;;;;;;;7.55;6.85;;;21.50;59.90;;;;;;5094646;28;20169;-61
2021/09/06 05:36:07;;;;;;;6.93;6.32;;;21.50;59.90;;;;;;5094923;28;20621;-61
2021/09/06 05:38:32;;;;;;;6.78;6.18;;;21.40;59.80;;;;;;5093852;28;20173;-61
2021/09/06 05:40:58;;;;;;;6.45;5.85;;;21.50;59.90;;;;;;5094651;28;20197;-62
2021/09/06 05:43:23;;;;;;;7.10;6.13;;;21.40;59.90;;;;;;5094382;28;20173;-62
2021/09/06 05:45:49;;;;;;;7.05;6.35;;;21.50;59.90;;;;;;5093940;28;20219;-61
2021/09/06 05:48:14;;;;;;;6.70;6.10;;;21.50;59.90;;;;;;5094564;28;20270;-61
2021/09/06 05:50:40;;;;;;;6.43;5.90;;;21.50;59.90;;;;;;5093410;28;20277;-61
2021/09/06 05:53:06;;;;;;;6.13;5.60;;;21.50;59.90;;;;;;5094290;28;20166;-61
2021/09/06 05:55:32;;;;;;;6.40;5.90;;;21.50;59.90;;;;;;5093877;28;20260;-61
2021/09/06 05:57:58;;;;;;;6.82;6.22;;;21.50;59.80;;;;;;5093595;28;20188;-61
2021/09/06 06:00:23;;;;;;;6.88;6.30;;;21.40;59.80;;;;;;5093895;28;20545;-62
2021/09/06 06:02:49;;;;;;;6.72;6.13;;;21.50;59.90;;;;;;5094378;28;20166;-61
2021/09/06 06:05:14;;;;;;;5.97;5.47;;;21.50;59.90;;;;;;5093228;28;20174;-62
2021/09/06 06:07:40;;;;;;;6.55;5.95;;;21.40;59.80;;;;;;5093844;28;20178;-61
2021/09/06 06:10:05;;;;;;;6.00;5.47;;;21.50;59.80;;;;;;5094057;28;20251;-61
2021/09/06 06:12:31;;;;;;;6.75;6.15;;;21.50;59.80;;;;;;5093017;28;20166;-61
2021/09/06 06:14:56;;;;;;;7.45;5.80;;;21.50;59.70;;;;;;5094047;28;20174;-61
2021/09/06 06:17:22;;;;;;;6.72;6.13;;;21.50;59.80;;;;;;5092842;28;20189;-61
2021/09/06 06:19:47;;;;;;;7.13;6.43;;;21.50;59.70;;;;;;5093175;28;20268;-61
2021/09/06 06:22:13;;;;;;;6.72;6.03;;;21.50;59.70;;;;;;5093783;28;20294;-61
2021/09/06 06:24:38;;;;;;;6.47;5.88;;;21.50;59.70;;;;;;5093362;28;20174;-60
2021/09/06 06:27:04;;;;;;;7.55;6.80;;;21.50;59.70;;;;;;5093164;28;20516;-59
2021/09/06 06:29:29;;;;;;;9.85;7.75;;;21.50;59.70;;;;;;5093468;28;20553;-62
2021/09/06 06:31:56;;;;;;;9.10;7.65;;;21.50;59.70;;;;;;5093534;28;20198;-61
2021/09/06 06:34:22;;;;;;;9.35;8.45;;;21.50;59.70;;;;;;5092564;28;20180;-61
2021/09/06 06:36:47;;;;;;;13.65;8.30;;;21.50;59.70;;;;;;5093642;28;20177;-62
2021/09/06 06:39:13;;;;;;;9.48;7.80;;;21.50;59.70;;;;;;5093268;28;20173;-61
2021/09/06 06:41:38;;;;;;;12.57;9.25;;;21.60;59.80;;;;;;5092650;28;20166;-62
2021/09/06 06:44:04;;;;;;;9.85;8.30;;;21.50;59.70;;;;;;5093715;28;20660;-61
2021/09/06 06:46:30;;;;;;;11.10;7.82;;;21.50;60.50;;;;;;5093067;28;20191;-61
2021/09/06 06:48:55;;;;;;;9.43;8.32;;;21.60;59.80;;;;;;5092458;28;20282;-62
2021/09/06 06:51:21;;;;;;;11.25;8.68;;;21.60;59.80;;;;;;5092945;28;20173;-61
2021/09/06 06:53:46;;;;;;;13.43;8.30;;;21.60;59.70;;;;;;5093135;28;20272;-63
2021/09/06 06:56:15;;;;;;;14.32;9.88;;;21.60;59.60;;;;;;5092354;28;20264;-61
2021/09/06 06:58:40;;;;;;;9.63;8.65;;;21.60;59.50;;;;;;5092916;28;20251;-61
2021/09/06 07:01:06;;;;;;;10.93;8.68;;;21.60;59.50;;;;;;5092264;28;20639;-61
2021/09/06 07:03:32;;;;;;;14.95;8.75;;;21.70;59.50;;;;;;5092746;28;20185;-61
2021/09/06 07:05:57;;;;;;;10.63;8.82;;;21.70;59.50;;;;;;5092750;28;20637;-61
2021/09/06 07:08:23;;;;;;;13.43;10.00;;;21.70;59.50;;;;;;5091683;28;20721;-61
2021/09/06 07:10:48;;;;;;;9.82;8.73;;;21.70;59.50;;;;;;5092996;28;20178;-60
2021/09/06 07:13:14;;;;;;;10.27;8.60;;;21.70;59.50;;;;;;5093146;28;20216;-61
2021/09/06 07:15:40;;;;;;;10.20;8.55;;;21.80;59.50;;;;;;5092095;28;20173;-60
2021/09/06 07:18:08;;;;;;;10.30;9.18;;;21.80;59.50;;;;;;5092956;28;20173;-61
2021/09/06 07:20:34;;;;;;;8.90;8.00;;;21.80;59.50;;;;;;5092197;28;20703;-61
2021/09/06 07:22:59;;;;;;;9.45;8.23;;;21.80;59.40;;;;;;5091958;28;20190;-61
2021/09/06 07:25:25;;;;;;;9.13;8.15;;;21.80;59.60;;;;;;5092324;28;20172;-61
2021/09/06 07:27:50;;;;;;;9.88;8.45;;;21.90;59.60;;;;;;5091856;28;20181;-60
2021/09/06 07:30:16;;;;;;;9.02;8.13;;;21.90;59.60;;;;;;5091881;28;20265;-61
2021/09/06 07:32:41;;;;;;;8.98;7.97;;;21.80;59.60;;;;;;5092432;28;20166;-61
2021/09/06 07:35:07;;;;;;;8.85;7.95;;;21.90;59.60;;;;;;5092839;28;20583;-62
2021/09/06 07:37:32;;;;;;;9.02;8.13;;;21.90;59.60;;;;;;5091523;28;20174;-61
2021/09/06 07:39:58;;;;;;;9.15;8.23;;;21.90;59.60;;;;;;5092748;28;20173;-61
2021/09/06 07:42:24;;;;;;;8.38;7.60;;;21.90;59.60;;;;;;5092505;28;20189;-62
2021/09/06 07:44:49;;;;;;;10.77;8.38;;;22.00;59.60;;;;;;5091855;28;20181;-61
2021/09/06 07:47:15;;;;;;;9.45;8.40;;;22.00;59.60;;;;;;5092304;28;20565;-61
2021/09/06 07:49:42;;;;;;;9.90;8.27;;;22.00;59.60;;;;;;5091674;28;20717;-61
2021/09/06 07:52:08;;;;;;;9.98;7.50;;;22.00;59.60;;;;;;5091157;28;20178;-61
2021/09/06 07:54:33;;;;;;;8.05;7.25;;;22.00;59.60;;;;;;5092085;28;20169;-60
2021/09/06 07:56:59;;;;;;;9.38;8.38;;;22.10;59.60;;;;;;5092417;28;20177;-61
2021/09/06 07:59:24;;;;;;;8.90;8.02;;;22.10;59.60;;;;;;5091320;28;20174;-61
2021/09/06 08:01:50;;;;;;;8.43;7.63;;;22.10;59.60;;;;;;5092164;28;20197;-61
2021/09/06 08:04:15;;;;;;;9.10;8.15;;;22.10;59.50;;;;;;5091186;28;20663;-61
2021/09/06 08:06:41;;;;;;;9.00;8.10;;;22.20;59.60;;;;;;5091799;28;20174;-61
2021/09/06 08:09:06;;;;;;;8.25;7.43;;;22.20;59.60;;;;;;5092290;28;20247;-61
2021/09/06 08:11:32;;;;;;;9.13;8.13;;;22.20;59.70;;;;;;5091339;28;20965;-61
2021/09/06 08:13:58;;;;;;;9.85;8.20;;;22.20;59.60;;;;;;5092501;28;20197;-60
2021/09/06 08:16:24;;;;;;;8.43;7.63;;;22.20;59.60;;;;;;5091983;28;20637;-60
2021/09/06 08:18:50;;;;;;;8.55;7.70;;;22.30;59.70;;;;;;5091470;28;20196;-60
2021/09/06 08:21:15;;;;;;;8.88;7.97;;;22.30;59.70;;;;;;5091789;28;20672;-60
2021/09/06 08:23:41;;;;;;;8.13;7.32;;;22.20;59.70;;;;;;5091681;28;20177;-60
2021/09/06 08:26:06;;;;;;;10.18;8.55;;;22.30;59.80;;;;;;5091342;28;20162;-61
2021/09/06 08:28:32;;;;;;;8.52;7.55;;;22.20;59.70;;;;;;5091791;28;20197;-60
2021/09/06 08:30:57;;;;;;;9.80;7.93;;;22.30;59.70;;;;;;5092415;28;20182;-61
2021/09/06 08:33:23;;;;;;;8.20;7.40;;;22.30;59.70;;;;;;5091380;28;20742;-61
2021/09/06 08:35:49;;;;;;;8.52;7.60;;;22.30;59.70;;;;;;5092036;28;20174;-61
2021/09/06 08:38:15;;;;;;;8.52;7.72;;;22.30;59.70;;;;;;5092429;28;20166;-62
2021/09/06 08:40:40;;;;;;;7.75;7.05;;;22.30;59.80;;;;;;5094209;28;20475;-61
2021/09/06 08:43:06;;;;;;;8.40;7.50;;;22.30;59.80;;;;;;5096091;28;20539;-61
2021/09/06 08:45:32;;;;;;;8.82;8.02;;;22.30;59.80;;;;;;5095617;28;20636;-61
2021/09/06 08:47:58;;;;;;;8.05;7.25;;;22.40;59.90;;;;;;5095282;28;20177;-61
2021/09/06 08:50:23;;;;;;;8.20;7.40;;;22.30;59.80;;;;;;5095743;28;20238;-61
2021/09/06 08:52:49;;;;;;;9.57;7.90;;;22.40;59.90;;;;;;5095712;28;20633;-60
2021/09/06 08:55:14;;;;;;;8.57;7.68;;;22.40;59.90;;;;;;5094985;28;20264;-60
2021/09/06 08:57:40;;;;;;;8.48;7.68;;;22.40;60.00;;;;;;5095780;28;20178;-61
2021/09/06 09:00:06;;;;;;;8.00;7.30;;;22.40;60.00;;;;;;5095687;28;20616;-61
2021/09/06 09:02:34;;;;;;;7.68;6.97;;;22.40;60.00;;;;;;5094445;28;20174;-62
2021/09/06 09:05:07;;;;;;;8.93;8.00;;;22.40;59.90;;;;;;5095422;28;20250;-61
2021/09/06 09:07:33;;;;;;;8.52;7.72;;;22.50;59.80;;;;;;5094328;28;20177;-61
2021/09/06 09:09:59;;;;;;;8.93;8.02;;;22.50;59.80;;;;;;5095362;28;20213;-61
2021/09/06 09:12:25;;;;;;;8.88;8.07;;;22.50;59.80;;;;;;5095073;28;20177;-61
2021/09/06 09:14:53;;;;;;;8.40;7.60;;;22.60;59.80;;;;;;5094421;28;20182;-61
2021/09/06 09:17:19;;;;;;;8.32;7.40;;;22.50;59.70;;;;;;5094937;28;20621;-61
2021/09/06 09:19:44;;;;;;;8.98;8.02;;;22.50;59.80;;;;;;5094858;28;20181;-61
2021/09/06 09:22:13;;;;;;;9.40;7.50;;;22.60;59.90;;;;;;5094100;28;20225;-61
2021/09/06 09:24:39;;;;;;;8.70;7.50;;;22.60;59.80;;;;;;5094851;28;20173;-61
2021/09/06 09:27:16;;;;;;;8.32;7.53;;;22.60;59.80;;;;;;5094984;28;20170;-61
2021/09/06 09:29:43;;;;;;;8.25;7.45;;;22.60;59.80;;;;;;5093747;28;20296;-61
2021/09/06 09:32:10;;;;;;;8.70;7.80;;;22.60;59.90;;;;;;5094686;28;20512;-61
2021/09/06 09:34:40;;;;;;;7.78;6.97;;;22.60;59.80;;;;;;5094574;28;20178;-62
2021/09/06 09:37:07;;;;;;;8.75;7.85;;;22.60;59.80;;;;;;5094053;28;20169;-62
2021/09/06 09:39:34;;;;;;;8.15;7.35;;;22.60;59.80;;;;;;5094419;28;20173;-62
2021/09/06 09:42:08;;;;;;;7.97;7.15;;;22.70;59.90;;;;;;5094306;28;20257;-61
2021/09/06 09:44:43;;;;;;;8.48;6.75;;;22.70;59.90;;;;;;5093261;28;20750;-61
2021/09/06 09:47:09;;;;;;;7.65;6.95;;;22.70;59.80;;;;;;5094717;28;20177;-62
2021/09/06 09:49:34;;;;;;;8.93;8.02;;;22.70;59.80;;;;;;5094093;28;20560;-62
2021/09/06 09:52:00;;;;;;;8.38;6.78;;;22.70;59.70;;;;;;5092603;28;20185;-61
2021/09/06 09:54:25;;;;;;;8.57;7.78;;;22.70;59.80;;;;;;5093993;28;20177;-61
2021/09/06 09:56:51;;;;;;;7.40;6.80;;;22.80;59.80;;;;;;5093695;28;20169;-61
2021/09/06 09:59:18;;;;;;;7.97;7.28;;;22.70;59.70;;;;;;5094139;28;20639;-62
2021/09/06 10:01:52;;;;;;;8.57;7.68;;;22.80;59.80;;;;;;5094069;28;20210;-62
2021/09/06 10:04:22;;;;;;;7.93;7.20;;;22.80;59.80;;;;;;5092370;28;20277;-62
2021/09/06 10:06:48;;;;;;;8.38;7.57;;;22.80;59.80;;;;;;5093086;28;20177;-61
2021/09/06 10:09:16;;;;;;;7.95;7.25;;;22.80;59.80;;;;;;5094154;28;20206;-61
2021/09/06 10:11:42;;;;;;;8.00;7.25;;;22.80;59.70;;;;;;5093200;28;20246;-62
2021/09/06 10:14:21;;;;;;;8.27;7.25;;;22.90;59.70;;;;;;5094226;28;20217;-61
2021/09/06 10:17:03;;;;;;;7.85;7.07;;;22.90;59.70;;;;;;5094438;28;20199;-61
2021/09/06 10:19:39;;;;;;;8.57;7.72;;;22.90;59.60;;;;;;5092903;28;20188;-62
2021/09/06 10:22:05;;;;;;;8.88;7.90;;;22.90;59.50;;;;;;5093478;28;20229;-61
2021/09/06 10:24:30;;;;;;;8.07;7.28;;;22.90;59.50;;;;;;5093482;28;20180;-61
2021/09/06 10:27:06;;;;;;;8.77;7.90;;;23.00;59.50;;;;;;5093208;28;20177;-61
2021/09/06 10:29:31;;;;;;;8.77;7.85;;;23.00;59.50;;;;;;5093332;28;20236;-61
2021/09/06 10:31:58;;;;;;;8.98;7.63;;;23.00;59.50;;;;;;5092829;28;20624;-63
2021/09/06 10:34:25;;;;;;;8.95;7.88;;;23.10;59.50;;;;;;5093353;28;20201;-59
2021/09/06 10:37:01;;;;;;;10.02;7.47;;;23.10;59.60;;;;;;5093664;28;20178;-58
2021/09/06 10:39:27;;;;;;;10.05;7.45;;;23.10;59.50;;;;;;5092750;28;20192;-59
2021/09/06 10:41:53;;;;;;;8.02;7.07;;;23.10;59.60;;;;;;5093634;28;20166;-59
2021/09/06 10:44:19;;;;;;;9.13;8.20;;;23.10;59.50;;;;;;5093497;28;20182;-59
2021/09/06 10:46:55;;;;;;;9.27;7.95;;;23.20;59.50;;;;;;5091530;28;20169;-59
2021/09/06 10:49:23;;;;;;;8.52;7.72;;;23.10;59.50;;;;;;5090716;28;20212;-59
2021/09/06 10:51:48;;;;;;;8.52;7.53;;;23.10;59.60;;;;;;5092969;28;20231;-59
2021/09/06 10:54:14;;;;;;;9.00;8.02;;;23.20;59.70;;;;;;5091298;28;20186;-59
2021/09/06 10:56:39;;;;;;;11.60;8.07;;;23.20;59.70;;;;;;5092893;28;20224;-59
2021/09/06 10:59:05;;;;;;;8.50;7.63;;;23.20;59.70;;;;;;5093269;28;20655;-59
2021/09/06 11:01:31;;;;;;;8.50;7.57;;;23.20;59.80;;;;;;5092099;28;20173;-60
2021/09/06 11:03:57;;;;;;;9.35;8.07;;;23.20;59.70;;;;;;5093132;28;20246;-59
2021/09/06 11:06:27;;;;;;;9.82;8.27;;;23.20;60.60;;;;;;5092583;28;20627;-60
2021/09/06 11:08:53;;;;;;;10.45;8.25;;;23.20;59.80;;;;;;5092013;28;20213;-59
2021/09/06 11:11:18;;;;;;;9.13;8.18;;;23.20;59.80;;;;;;5092875;28;20348;-57
2021/09/06 11:13:45;;;;;;;10.05;7.75;;;23.20;60.60;;;;;;5092436;28;20265;-60
2021/09/06 11:16:12;;;;;;;9.70;7.50;;;23.20;59.80;;;;;;5092046;28;20666;-60
2021/09/06 11:18:39;;;;;;;10.60;8.05;;;23.20;59.70;;;;;;5092640;28;20178;-59
2021/09/06 11:21:05;;;;;;;8.38;7.28;;;23.20;59.60;;;;;;5092770;28;20225;-63
2021/09/06 11:23:38;;;;;;;11.40;8.30;;;23.30;59.70;;;;;;5091741;28;20188;-63
2021/09/06 11:26:04;;;;;;;9.25;7.18;;;23.30;59.70;;;;;;5092856;28;20192;-62
2021/09/06 11:28:30;;;;;;;9.20;7.63;;;23.30;59.60;;;;;;5091718;28;20205;-62
2021/09/06 11:30:55;;;;;;;8.02;6.85;;;23.30;59.50;;;;;;5092582;28;20264;-63
2021/09/06 11:33:21;;;;;;;10.80;7.97;;;23.40;59.50;;;;;;5092586;28;20181;-63
2021/09/06 11:35:47;;;;;;;8.38;7.55;;;23.40;59.40;;;;;;5092108;28;20170;-63
2021/09/06 11:38:13;;;;;;;9.68;7.60;;;23.50;59.40;;;;;;5092761;28;20223;-63
2021/09/06 11:40:39;;;;;;;11.05;7.78;;;23.50;59.30;;;;;;5092303;28;20173;-63
2021/09/06 11:43:05;;;;;;;8.38;6.88;;;23.50;59.20;;;;;;5091774;28;20177;-65
2021/09/06 11:45:31;;;;;;;7.90;7.10;;;23.50;59.20;;;;;;5091941;28;20188;-66
2021/09/06 11:48:01;;;;;;;9.25;7.03;;;23.60;59.10;;;;;;5091380;28;20166;-64
2021/09/06 11:50:34;;;;;;;9.52;7.53;;;23.60;59.10;;;;;;5091334;28;20182;-65
2021/09/06 11:53:04;;;;;;;9.70;8.10;;;23.60;59.00;;;;;;5092390;28;20326;-64
2021/09/06 11:55:29;;;;;;;8.85;8.02;;;23.60;58.90;;;;;;5091908;28;20174;-64
2021/09/06 11:58:13;;;;;;;10.93;7.93;;;23.60;58.90;;;;;;5091424;28;20173;-64
2021/09/06 12:00:40;;;;;;;11.60;8.50;;;23.60;58.80;;;;;;5092099;28;20174;-64
2021/09/06 12:03:06;;;;;;;10.10;7.40;;;23.60;58.80;;;;;;5092082;28;20600;-65
2021/09/06 12:05:42;;;;;;;8.80;7.88;;;23.60;58.70;;;;;;5091309;28;20174;-65
2021/09/06 12:08:13;;;;;;;8.55;7.60;;;23.60;58.70;;;;;;5091978;28;20178;-65
2021/09/06 12:10:39;;;;;;;8.77;7.28;;;23.60;58.70;;;;;;5090993;28;20178;-64
2021/09/06 12:13:07;;;;;;;8.98;8.07;;;23.60;58.60;;;;;;5092271;28;20174;-64
2021/09/06 12:15:36;;;;;;;9.10;7.60;;;23.60;58.60;;;;;;5094642;28;20269;-64
2021/09/06 12:18:06;;;;;;;8.23;7.32;;;23.70;58.50;;;;;;5095356;28;20656;-64
2021/09/06 12:20:34;;;;;;;9.35;7.57;;;23.70;58.50;;;;;;5095577;28;20586;-65
2021/09/06 12:22:59;;;;;;;8.60;7.78;;;23.70;58.40;;;;;;5096168;28;20238;-64
2021/09/06 12:25:25;;;;;;;9.32;7.15;;;23.80;58.30;;;;;;5095245;28;20509;-64
2021/09/06 12:27:51;;;;;;;8.30;7.50;;;23.80;58.30;;;;;;5096236;28;20223;-63
2021/09/06 12:30:16;;;;;;;7.53;6.68;;;23.90;58.10;;;;;;5096328;28;20239;-63
2021/09/06 12:32:42;;;;;;;8.23;7.43;;;24.00;58.00;;;;;;5095546;28;20174;-64
2021/09/06 12:35:10;;;;;;;7.90;7.10;;;24.00;57.90;;;;;;5096672;28;20170;-64
2021/09/06 12:37:36;;;;;;;8.35;7.55;;;24.00;57.90;;;;;;5095373;28;20186;-65
2021/09/06 12:40:03;;;;;;;8.70;7.90;;;24.00;57.90;;;;;;5095008;28;20218;-63